createdAt,value
2023-04-15T00:02:23.133Z,35.20
2023-04-15T00:04:55.438Z,36.10
2023-04-15T00:07:27.946Z,36.00
2023-04-15T00:10:00.765Z,35.60
2023-04-15T00:12:32.999Z,35.00
2023-04-15T00:15:05.575Z,34.70
2023-04-15T00:17:39.243Z,36.10
2023-04-15T00:20:13.155Z,37.20
2023-04-15T00:22:45.481Z,32.50
2023-04-15T00:25:18.349Z,34.90
2023-04-15T00:27:50.451Z,36.10
2023-04-15T00:30:24.106Z,35.50
2023-04-15T00:32:56.633Z,33.20
2023-04-15T00:35:28.777Z,36.80
2023-04-15T00:38:01.049Z,35.40
2023-04-15T00:40:33.551Z,34.40
2023-04-15T00:43:05.767Z,35.30
2023-04-15T00:45:38.562Z,35.20
2023-04-15T00:48:11.625Z,33.00
2023-04-15T00:50:43.781Z,34.50
2023-04-15T00:53:15.823Z,33.40
2023-04-15T00:55:48.009Z,33.40
2023-04-15T00:58:21.397Z,30.60
2023-04-15T01:00:55.197Z,28.90
2023-04-15T01:03:27.907Z,30.10
2023-04-15T01:06:03.968Z,31.30
2023-04-15T01:08:36.517Z,30.00
2023-04-15T01:11:09.704Z,28.40
2023-04-15T01:13:42.659Z,27.10
2023-04-15T01:16:15.561Z,29.40
2023-04-15T01:18:48.648Z,29.90
2023-04-15T01:21:22.062Z,29.70
2023-04-15T01:23:56.994Z,29.10
2023-04-15T01:26:29.337Z,28.80
2023-04-15T01:29:01.612Z,29.50
2023-04-15T01:31:34.222Z,28.40
2023-04-15T01:34:07.161Z,25.90
2023-04-15T01:36:39.326Z,28.80
2023-04-15T01:39:11.614Z,27.30
2023-04-15T01:41:44.273Z,28.00
2023-04-15T01:44:16.537Z,28.90
2023-04-15T01:46:48.601Z,27.10
2023-04-15T01:49:21.036Z,27.50
2023-04-15T01:51:54.264Z,26.50
2023-04-15T01:54:26.591Z,22.10
2023-04-15T01:56:59.076Z,19.30
2023-04-15T01:59:32.328Z,14.80
2023-04-15T02:02:04.740Z,14.20
2023-04-15T02:04:37.024Z,14.90
2023-04-15T02:07:09.200Z,13.80
2023-04-15T02:09:41.389Z,13.80
2023-04-15T02:12:14.098Z,12.10
2023-04-15T02:14:46.316Z,11.30
2023-04-15T02:17:18.363Z,10.10
2023-04-15T02:19:50.653Z,10.40
2023-04-15T02:22:22.774Z,9.20
2023-04-15T02:24:55.011Z,6.90
2023-04-15T02:27:28.338Z,6.50
2023-04-15T02:30:00.684Z,7.80
2023-04-15T02:32:32.946Z,7.50
2023-04-15T02:35:07.767Z,7.80
2023-04-15T02:37:44.079Z,8.00
2023-04-15T02:40:17.225Z,7.60
2023-04-15T02:42:49.540Z,8.10
2023-04-15T02:45:24.249Z,8.00
2023-04-15T02:47:57.459Z,7.40
2023-04-15T02:50:30.059Z,8.80
2023-04-15T02:53:02.818Z,10.60
2023-04-15T02:55:35.034Z,9.00
2023-04-15T02:58:07.228Z,8.60
2023-04-15T03:00:39.385Z,8.40
2023-04-15T03:03:12.193Z,7.80
2023-04-15T03:05:45.563Z,7.10
2023-04-15T03:08:17.817Z,5.60
2023-04-15T03:10:52.563Z,6.30
2023-04-15T03:13:24.728Z,5.90
2023-04-15T03:15:57.077Z,5.60
2023-04-15T03:18:29.810Z,5.90
2023-04-15T03:21:06.525Z,6.10
2023-04-15T03:23:40.366Z,5.50
2023-04-15T03:26:24.911Z,5.80
2023-04-15T03:28:58.393Z,5.50
2023-04-15T03:31:30.636Z,5.30
2023-04-15T03:34:02.828Z,4.90
2023-04-15T03:36:35.037Z,4.20
2023-04-15T03:39:07.198Z,5.30
2023-04-15T03:41:39.254Z,4.60
2023-04-15T03:44:11.400Z,4.70
2023-04-15T03:46:43.684Z,5.10
2023-04-15T03:49:17.123Z,5.00
2023-04-15T03:51:49.260Z,5.70
2023-04-15T03:54:21.361Z,4.40
2023-04-15T03:56:53.508Z,4.90
2023-04-15T03:59:25.725Z,4.80
2023-04-15T04:01:57.922Z,5.00
2023-04-15T04:04:30.270Z,4.40
2023-04-15T04:07:02.479Z,3.80
2023-04-15T04:09:34.892Z,4.90
2023-04-15T04:12:07.073Z,5.20
2023-04-15T04:14:39.222Z,5.10
2023-04-15T04:17:11.868Z,5.10
2023-04-15T04:19:44.087Z,4.70
2023-04-15T04:22:16.417Z,5.30
2023-04-15T04:24:48.486Z,6.00
2023-04-15T04:27:20.536Z,5.50
2023-04-15T04:29:52.577Z,5.60
2023-04-15T04:32:24.821Z,5.20
2023-04-15T04:34:57.098Z,5.80
2023-04-15T04:37:29.157Z,5.30
2023-04-15T04:40:01.223Z,6.00
2023-04-15T04:42:33.270Z,5.30
2023-04-15T04:45:05.800Z,5.60
2023-04-15T04:47:37.878Z,7.20
2023-04-15T04:50:11.797Z,9.10
2023-04-15T04:52:43.966Z,66.80
2023-04-15T04:55:16.104Z,71.00
2023-04-15T04:57:48.408Z,65.70
2023-04-15T05:00:21.397Z,47.20
2023-04-15T05:02:53.686Z,21.50
2023-04-15T05:05:26.314Z,11.10
2023-04-15T05:07:58.421Z,12.80
2023-04-15T05:10:30.623Z,12.50
2023-04-15T05:13:02.927Z,10.40
2023-04-15T05:15:37.155Z,14.30
2023-04-15T05:18:09.477Z,14.20
2023-04-15T05:20:41.995Z,11.60
2023-04-15T05:23:14.270Z,9.90
2023-04-15T05:25:46.420Z,10.00
2023-04-15T05:28:18.680Z,13.60
2023-04-15T05:30:51.198Z,11.30
2023-04-15T05:33:23.580Z,9.90
2023-04-15T05:35:55.855Z,9.20
2023-04-15T05:38:28.076Z,8.70
2023-04-15T05:41:00.184Z,8.30
2023-04-15T05:43:32.206Z,8.30
2023-04-15T05:46:04.504Z,8.90
2023-04-15T05:48:36.916Z,15.00
2023-04-15T05:51:11.161Z,15.10
2023-04-15T05:53:43.101Z,10.20
2023-04-15T05:56:15.155Z,7.90
2023-04-15T05:58:47.276Z,8.60
2023-04-15T06:01:19.376Z,8.90
2023-04-15T06:03:51.777Z,13.60
2023-04-15T06:06:24.427Z,13.30
2023-04-15T06:08:57.634Z,8.70
2023-04-15T06:11:29.912Z,9.20
2023-04-15T06:14:02.202Z,22.10
2023-04-15T06:16:34.309Z,14.10
2023-04-15T06:19:06.430Z,7.20
2023-04-15T06:21:39.194Z,8.30
2023-04-15T06:24:11.467Z,6.90
2023-04-15T06:26:43.540Z,6.10
2023-04-15T06:29:15.798Z,6.60
2023-04-15T06:31:48.781Z,5.10
2023-04-15T06:34:21.106Z,6.50
2023-04-15T06:36:54.871Z,5.80
2023-04-15T06:39:27.129Z,5.40
2023-04-15T06:41:59.315Z,6.30
2023-04-15T06:44:33.810Z,6.10
2023-04-15T06:47:06.460Z,5.40
2023-04-15T06:49:38.740Z,5.50
2023-04-15T06:52:11.586Z,4.40
2023-04-15T06:54:43.878Z,4.10
2023-04-15T06:57:16.263Z,4.20
2023-04-15T06:59:48.681Z,5.10
2023-04-15T07:02:20.942Z,5.20
2023-04-15T07:04:53.162Z,4.50
2023-04-15T07:07:25.808Z,4.40
2023-04-15T07:09:57.895Z,4.40
2023-04-15T07:12:30.742Z,5.40
2023-04-15T07:15:02.824Z,5.30
2023-04-15T07:17:35.546Z,5.10
2023-04-15T07:20:09.302Z,6.30
2023-04-15T07:22:41.726Z,5.90
2023-04-15T07:25:14.178Z,6.30
2023-04-15T07:27:46.722Z,5.70
2023-04-15T07:30:19.312Z,3.80
2023-04-15T07:32:51.570Z,5.40
2023-04-15T07:35:24.055Z,3.70
2023-04-15T07:37:56.384Z,3.60
2023-04-15T07:40:28.797Z,4.10
2023-04-15T07:43:01.070Z,3.70
2023-04-15T07:45:33.465Z,3.80
2023-04-15T07:48:06.745Z,3.40
2023-04-15T07:50:39.447Z,3.30
2023-04-15T07:53:11.800Z,3.90
2023-04-15T07:55:43.884Z,32.60
2023-04-15T07:58:15.963Z,5.40
2023-04-15T08:00:48.131Z,4.20
2023-04-15T08:03:20.467Z,4.20
2023-04-15T08:05:52.857Z,3.90
2023-04-15T08:08:25.741Z,3.50
2023-04-15T08:10:57.931Z,4.20
2023-04-15T08:13:30.381Z,3.40
2023-04-15T08:16:20.912Z,3.60
2023-04-15T08:18:54.492Z,3.40
2023-04-15T08:21:27.806Z,3.40
2023-04-15T08:24:00.409Z,2.60
2023-04-15T08:26:32.777Z,2.80
2023-04-15T08:29:05.126Z,2.50
2023-04-15T08:31:37.852Z,2.90
2023-04-15T08:34:10.572Z,3.40
2023-04-15T08:36:44.525Z,3.50
2023-04-15T08:39:51.026Z,2.30
2023-04-15T08:42:32.696Z,2.40
2023-04-15T08:45:10.501Z,2.90
2023-04-15T08:47:44.576Z,2.20
2023-04-15T08:50:18.097Z,2.10
2023-04-15T08:52:50.204Z,2.60
2023-04-15T08:55:24.080Z,2.50
2023-04-15T08:57:56.270Z,2.50
2023-04-15T09:00:29.739Z,2.70
2023-04-15T09:03:02.403Z,2.90
2023-04-15T09:05:36.680Z,2.60
2023-04-15T09:08:09.188Z,2.40
2023-04-15T09:10:41.383Z,3.00
2023-04-15T09:13:14.019Z,2.30
2023-04-15T09:15:46.805Z,2.20
2023-04-15T09:18:31.249Z,2.30
2023-04-15T09:21:11.447Z,2.40
2023-04-15T09:23:56.210Z,3.00
2023-04-15T09:26:36.474Z,2.30
2023-04-15T09:29:10.566Z,3.10
2023-04-15T09:31:43.786Z,2.50
2023-04-15T09:34:15.964Z,2.30
2023-04-15T09:36:58.407Z,2.60
2023-04-15T09:39:46.394Z,2.60
2023-04-15T09:42:24.542Z,2.20
2023-04-15T09:44:57.220Z,2.20
2023-04-15T09:47:32.669Z,2.10
2023-04-15T09:50:05.050Z,2.40
2023-04-15T09:52:44.631Z,2.70
2023-04-15T09:55:19.535Z,2.10
2023-04-15T09:57:51.688Z,2.30
2023-04-15T10:00:23.876Z,2.80
2023-04-15T10:02:56.442Z,2.60
2023-04-15T10:05:29.861Z,2.60
2023-04-15T10:08:04.610Z,2.40
2023-04-15T10:10:37.015Z,2.60
2023-04-15T10:13:11.384Z,2.50
2023-04-15T10:15:47.729Z,5.60
2023-04-15T10:18:22.888Z,2.60
2023-04-15T10:20:55.792Z,2.00
2023-04-15T10:23:29.179Z,2.00
2023-04-15T10:26:01.947Z,2.50
2023-04-15T10:28:34.355Z,2.20
2023-04-15T10:31:08.882Z,2.30
2023-04-15T10:33:41.852Z,1.90
2023-04-15T10:36:15.550Z,2.00
2023-04-15T10:38:48.382Z,2.10
2023-04-15T10:41:22.977Z,2.20
2023-04-15T10:43:57.973Z,2.00
2023-04-15T10:46:49.443Z,1.80
2023-04-15T10:49:29.204Z,2.20
2023-04-15T10:52:03.494Z,2.20
2023-04-15T10:54:38.993Z,2.40
2023-04-15T10:57:23.975Z,2.80
2023-04-15T11:00:14.411Z,2.20
2023-04-15T11:02:49.562Z,2.20
2023-04-15T11:05:23.513Z,2.50
2023-04-15T11:07:57.519Z,2.30
2023-04-15T11:10:55.634Z,2.40
2023-04-15T11:13:34.432Z,2.40
2023-04-15T11:16:07.709Z,2.40
2023-04-15T11:18:40.198Z,2.80
2023-04-15T11:21:12.367Z,2.30
2023-04-15T11:23:47.616Z,2.80
2023-04-15T11:26:19.874Z,2.70
2023-04-15T11:28:52.062Z,3.10
2023-04-15T11:31:24.776Z,3.20
2023-04-15T11:34:01.822Z,2.60
2023-04-15T11:36:34.837Z,2.60
2023-04-15T11:39:10.278Z,2.70
2023-04-15T11:41:44.427Z,3.10
2023-04-15T11:44:20.821Z,2.60
2023-04-15T11:46:53.090Z,2.70
2023-04-15T11:49:35.296Z,2.50
2023-04-15T11:52:13.716Z,2.70
2023-04-15T11:54:46.174Z,5.00
2023-04-15T11:57:18.716Z,4.10
2023-04-15T11:59:51.260Z,2.70
2023-04-15T12:02:32.143Z,2.70
2023-04-15T12:05:10.006Z,2.90
2023-04-15T12:08:04.166Z,2.70
2023-04-15T12:10:36.953Z,2.90
2023-04-15T12:13:12.697Z,2.40
2023-04-15T12:15:45.119Z,3.00
2023-04-15T12:18:22.361Z,3.00
2023-04-15T12:20:54.826Z,2.40
2023-04-15T12:23:26.889Z,2.60
2023-04-15T12:25:59.114Z,3.00
2023-04-15T12:28:33.496Z,2.60
2023-04-15T12:31:12.127Z,2.10
2023-04-15T12:33:44.484Z,2.60
2023-04-15T12:36:17.260Z,2.50
2023-04-15T12:38:49.439Z,2.40
2023-04-15T12:41:24.482Z,2.20
2023-04-15T12:43:56.832Z,2.40
2023-04-15T12:46:29.565Z,2.60
2023-04-15T12:49:01.795Z,2.30
2023-04-15T12:51:34.109Z,2.30
2023-04-15T12:54:06.625Z,2.50
2023-04-15T12:56:39.062Z,2.60
2023-04-15T12:59:11.107Z,2.10
2023-04-15T13:01:43.592Z,2.70
2023-04-15T13:04:16.616Z,2.40
2023-04-15T13:06:49.024Z,2.40
2023-04-15T13:09:21.521Z,2.00
2023-04-15T13:11:54.610Z,2.80
2023-04-15T13:14:27.339Z,15.70
2023-04-15T13:16:59.569Z,2.80
2023-04-15T13:19:32.330Z,3.00
2023-04-15T13:22:04.478Z,2.40
2023-04-15T13:24:37.228Z,2.40
2023-04-15T13:27:09.572Z,2.90
2023-04-15T13:29:42.605Z,3.40
2023-04-15T13:32:14.890Z,10.70
2023-04-15T13:34:47.327Z,4.60
2023-04-15T13:37:19.617Z,6.80
2023-04-15T13:39:52.314Z,12.70
2023-04-15T13:42:24.661Z,6.50
2023-04-15T13:44:56.918Z,12.20
2023-04-15T13:47:29.185Z,7.60
2023-04-15T13:50:01.523Z,9.80
2023-04-15T13:52:33.981Z,16.60
2023-04-15T13:55:22.388Z,7.90
2023-04-15T13:57:56.290Z,3.00
2023-04-15T14:00:28.482Z,12.80
2023-04-15T14:03:00.821Z,6.60
2023-04-15T14:05:33.950Z,9.20
2023-04-15T14:08:06.314Z,5.40
2023-04-15T14:10:39.351Z,15.30
2023-04-15T14:13:11.670Z,5.50
2023-04-15T14:15:44.254Z,4.60
2023-04-15T14:18:16.616Z,23.30
2023-04-15T14:20:48.892Z,14.00
2023-04-15T14:23:21.469Z,4.90
2023-04-15T14:25:54.512Z,4.20
2023-04-15T14:28:27.764Z,5.50
2023-04-15T14:31:01.043Z,10.20
2023-04-15T14:33:33.920Z,20.40
2023-04-15T14:36:07.876Z,19.30
2023-04-15T14:38:41.449Z,11.10
2023-04-15T14:41:14.029Z,21.50
2023-04-15T14:43:46.259Z,35.00
2023-04-15T14:46:22.012Z,28.90
2023-04-15T14:48:54.488Z,21.10
2023-04-15T14:51:27.145Z,23.30
2023-04-15T14:53:59.775Z,13.70
2023-04-15T14:56:32.227Z,21.20
2023-04-15T14:59:04.810Z,20.40
2023-04-15T15:01:38.400Z,10.00
2023-04-15T15:04:13.139Z,9.40
2023-04-15T15:06:47.912Z,8.50
2023-04-15T15:09:24.079Z,6.00
2023-04-15T15:11:57.362Z,4.30
2023-04-15T15:14:30.288Z,3.80
2023-04-15T15:17:02.861Z,5.30
2023-04-15T15:19:35.292Z,4.20
2023-04-15T15:22:08.081Z,3.80
2023-04-15T15:24:40.609Z,4.40
2023-04-15T15:27:13.352Z,4.10
2023-04-15T15:29:46.225Z,7.60
2023-04-15T15:32:18.461Z,7.50
2023-04-15T15:34:51.278Z,7.00
2023-04-15T15:37:23.694Z,5.90
2023-04-15T15:39:57.194Z,4.20
2023-04-15T15:42:32.594Z,4.20
2023-04-15T15:45:06.548Z,4.50
2023-04-15T15:47:38.827Z,4.10
2023-04-15T15:50:12.789Z,3.90
2023-04-15T15:52:45.434Z,5.90
2023-04-15T15:55:18.144Z,9.30
2023-04-15T15:57:51.641Z,7.40
2023-04-15T16:00:24.074Z,11.70
2023-04-15T16:05:34.118Z,9.30
2023-04-15T16:08:06.715Z,6.20
2023-04-15T16:10:39.040Z,11.30
2023-04-15T16:13:11.718Z,6.10
2023-04-15T16:15:43.948Z,6.70
2023-04-15T16:18:16.658Z,11.30
2023-04-15T16:20:48.839Z,8.80
2023-04-15T16:23:23.971Z,4.10
2023-04-15T16:25:56.411Z,3.60
2023-04-15T16:28:29.097Z,3.50
2023-04-15T16:31:01.654Z,3.70
2023-04-15T16:33:34.404Z,3.90
2023-04-15T16:36:08.269Z,4.10
2023-04-15T16:38:40.532Z,4.20
2023-04-15T16:41:12.848Z,4.70
2023-04-15T16:43:45.324Z,16.50
2023-04-15T16:46:17.519Z,7.40
2023-04-15T16:48:49.845Z,4.60
2023-04-15T16:51:21.940Z,4.40
2023-04-15T16:53:54.363Z,3.40
2023-04-15T16:56:27.245Z,3.60
2023-04-15T16:58:59.562Z,4.00
2023-04-15T17:01:31.885Z,8.20
2023-04-15T17:04:05.892Z,9.50
2023-04-15T17:06:38.347Z,7.10
2023-04-15T17:09:10.548Z,9.50
2023-04-15T17:11:44.719Z,9.00
2023-04-15T17:14:16.875Z,8.30
2023-04-15T17:16:48.992Z,4.70
2023-04-15T17:19:21.262Z,5.40
2023-04-15T17:21:54.918Z,5.50
2023-04-15T17:24:27.626Z,5.60
2023-04-15T17:27:00.673Z,10.30
2023-04-15T17:29:34.236Z,6.40
2023-04-15T17:32:07.096Z,8.10
2023-04-15T17:34:50.252Z,6.80
2023-04-15T17:37:23.423Z,6.60
2023-04-15T17:39:55.611Z,7.70
2023-04-15T17:42:27.742Z,5.40
2023-04-15T17:44:59.806Z,4.20
2023-04-15T17:47:32.106Z,7.30
2023-04-15T17:50:05.162Z,8.70
2023-04-15T17:52:37.528Z,4.80
2023-04-15T17:55:11.224Z,5.80
2023-04-15T17:57:43.480Z,6.00
2023-04-15T18:00:17.936Z,4.20
2023-04-15T18:02:50.723Z,6.60
2023-04-15T18:05:23.307Z,8.80
2023-04-15T18:07:56.403Z,7.10
2023-04-15T18:10:29.089Z,7.30
2023-04-15T18:13:03.587Z,6.80
2023-04-15T18:15:36.264Z,6.00
2023-04-15T18:18:08.943Z,9.30
2023-04-15T18:20:41.519Z,9.90
2023-04-15T18:23:14.618Z,17.10
2023-04-15T18:25:46.987Z,12.30
2023-04-15T18:28:20.100Z,9.30
2023-04-15T18:30:53.703Z,13.00
2023-04-15T18:33:28.946Z,5.10
2023-04-15T18:36:02.592Z,6.40
2023-04-15T18:38:34.994Z,6.90
2023-04-15T18:41:09.498Z,10.70
2023-04-15T18:43:43.292Z,11.40
2023-04-15T18:46:16.945Z,15.90
2023-04-15T18:48:49.378Z,5.80
2023-04-15T18:51:21.600Z,4.80
2023-04-15T18:53:54.560Z,99.10
2023-04-15T18:56:27.116Z,39.10
2023-04-15T18:59:08.893Z,26.00
2023-04-15T19:01:52.978Z,21.10
2023-04-15T19:04:25.915Z,21.60
2023-04-15T19:06:59.114Z,23.80
2023-04-15T19:09:32.295Z,38.30
2023-04-15T19:12:05.858Z,17.20
2023-04-15T19:14:38.855Z,15.30
2023-04-15T19:17:11.112Z,22.90
2023-04-15T19:19:43.829Z,16.70
2023-04-15T19:22:16.689Z,14.00
2023-04-15T19:24:49.797Z,14.30
2023-04-15T19:27:25.250Z,23.10
2023-04-15T19:32:29.978Z,19.60
2023-04-15T19:35:02.620Z,20.20
2023-04-15T19:37:35.283Z,16.30
2023-04-15T19:40:09.796Z,14.50
2023-04-15T19:42:42.526Z,14.40
2023-04-15T19:45:15.188Z,14.60
2023-04-15T19:47:47.438Z,20.30
2023-04-15T19:50:25.024Z,15.00
2023-04-15T19:52:57.638Z,15.20
2023-04-15T19:55:30.164Z,13.70
2023-04-15T19:58:02.590Z,9.10
2023-04-15T20:00:35.287Z,12.70
2023-04-15T20:03:08.038Z,9.40
2023-04-15T20:05:40.658Z,16.20
2023-04-15T20:08:13.251Z,21.40
2023-04-15T20:10:45.721Z,13.40
2023-04-15T20:13:18.142Z,7.40
2023-04-15T20:15:50.507Z,7.20
2023-04-15T20:18:22.798Z,7.30
2023-04-15T20:20:55.428Z,7.50
2023-04-15T20:23:27.942Z,9.20
2023-04-15T20:26:00.779Z,11.30
2023-04-15T20:28:34.642Z,11.60
2023-04-15T20:31:07.448Z,9.50
2023-04-15T20:33:39.853Z,7.70
2023-04-15T20:36:14.725Z,5.70
2023-04-15T20:38:46.903Z,5.10
2023-04-15T20:41:19.111Z,4.70
2023-04-15T20:43:51.344Z,6.10
2023-04-15T20:46:24.605Z,6.80
2023-04-15T20:48:58.993Z,5.80
2023-04-15T20:51:37.346Z,4.90
2023-04-15T20:54:09.548Z,5.10
2023-04-15T20:56:41.741Z,4.50
2023-04-15T20:59:13.800Z,4.10
2023-04-15T21:01:46.203Z,3.90
2023-04-15T21:04:18.584Z,10.10
2023-04-15T21:06:52.317Z,21.60
2023-04-15T21:09:24.679Z,7.50
2023-04-15T21:12:01.584Z,4.80
2023-04-15T21:14:36.022Z,7.00
2023-04-15T21:17:11.157Z,5.90
2023-04-15T21:19:44.035Z,6.40
2023-04-15T21:22:16.361Z,6.10
2023-04-15T21:24:48.607Z,5.50
2023-04-15T21:27:20.830Z,6.40
2023-04-15T21:29:53.117Z,5.80
2023-04-15T21:32:25.282Z,5.80
2023-04-15T21:34:57.497Z,7.00
2023-04-15T21:37:29.612Z,6.70
2023-04-15T21:40:01.899Z,6.70
2023-04-15T21:42:34.192Z,6.10
2023-04-15T21:45:07.077Z,7.30
2023-04-15T21:48:00.761Z,6.30
2023-04-15T21:50:31.483Z,6.20
2023-04-15T21:53:04.082Z,6.60
2023-04-15T21:55:36.241Z,7.30
2023-04-15T21:58:08.434Z,6.70
2023-04-15T22:00:40.919Z,7.20
2023-04-15T22:03:13.463Z,7.10
2023-04-15T22:05:47.852Z,6.70
2023-04-15T22:08:20.012Z,7.20
2023-04-15T22:10:52.101Z,7.10
2023-04-15T22:13:24.138Z,7.10
2023-04-15T22:15:56.786Z,6.90
2023-04-15T22:18:28.852Z,6.90
2023-04-15T22:21:01.677Z,6.70
2023-04-15T22:23:33.715Z,5.60
2023-04-15T22:26:06.927Z,6.50
2023-04-15T22:28:39.033Z,6.70
2023-04-15T22:31:11.579Z,6.50
2023-04-15T22:33:43.661Z,6.30
2023-04-15T22:36:15.830Z,6.30
2023-04-15T22:38:47.989Z,6.50
2023-04-15T22:41:20.132Z,6.10
2023-04-15T22:43:52.242Z,6.00
2023-04-15T22:46:24.437Z,6.70
2023-04-15T22:48:56.560Z,5.20
2023-04-15T22:51:29.218Z,6.30
2023-04-15T22:54:01.676Z,5.30
2023-04-15T22:56:34.233Z,6.70
2023-04-15T22:59:06.627Z,6.50
2023-04-15T23:01:39.423Z,6.40
2023-04-15T23:04:23.147Z,6.70
2023-04-15T23:06:57.444Z,6.80
2023-04-15T23:09:29.608Z,6.80
2023-04-15T23:12:01.709Z,6.30
2023-04-15T23:14:33.836Z,6.60
2023-04-15T23:17:06.053Z,6.50
2023-04-15T23:19:38.175Z,7.20
2023-04-15T23:22:10.771Z,6.90
2023-04-15T23:24:42.822Z,7.20
2023-04-15T23:27:14.985Z,6.30
2023-04-15T23:29:47.333Z,7.00
2023-04-15T23:32:19.377Z,7.00
2023-04-15T23:34:52.407Z,7.30
2023-04-15T23:37:24.561Z,7.30
2023-04-15T23:39:56.804Z,7.80
2023-04-15T23:42:28.988Z,7.90
2023-04-15T23:45:01.084Z,7.90
2023-04-15T23:47:33.198Z,7.00
2023-04-15T23:50:05.523Z,7.50
2023-04-15T23:52:37.762Z,6.00
2023-04-15T23:55:11.639Z,6.60
2023-04-15T23:57:44.103Z,6.40
